Time;durP1;ratioP1;P1;durP2;ratioP2;P2;SDS_P1;SDS_P2;PMS_P1;PMS_P2;Temp;Humidity;BMP_temperature;BMP_pressure;BME280_temperature;BME280_humidity;BME280_pressure;Samples;Min_cycle;Max_cycle;Signal;HPM_P1;HPM_P2
2022/03/24 00:01:18;;;;;;;4.50;4.10;;;;;;;15.03;40.51;97884.66;4946059;28;20197;-91
2022/03/24 00:03:46;;;;;;;5.83;4.60;;;;;;;15.06;40.67;97919.38;4922857;29;20253;-92
2022/03/24 00:06:13;;;;;;;5.87;4.57;;;;;;;14.84;40.69;97883.44;4910918;29;20186;-89
2022/03/24 00:11:26;;;;;;;5.27;4.50;;;;;;;17.46;40.42;98273.69;1041737;23;20632;-88
2022/03/24 00:13:54;;;;;;;6.43;4.90;;;;;;;16.25;40.55;98057.56;4898633;29;20220;-86
2022/03/24 00:16:21;;;;;;;5.10;4.40;;;;;;;17.27;40.32;98249.66;4901271;29;20208;-86
2022/03/24 00:18:48;;;;;;;5.13;4.37;;;;;;;17.26;40.71;98222.53;4881412;29;20294;-86
2022/03/24 00:21:16;;;;;;;5.53;4.80;;;;;;;17.13;40.41;98218.41;4880379;29;20210;-87
2022/03/24 00:23:46;;;;;;;5.27;4.40;;;;;;;17.41;40.32;98247.13;4896611;29;20316;-87
2022/03/24 00:26:12;;;;;;;5.10;4.60;;;;;;;15.01;40.46;97850.78;4880980;29;20206;-86
2022/03/24 00:28:39;;;;;;;6.40;4.53;;;;;;;17.50;40.51;98333.22;4880744;29;20206;-87
2022/03/24 00:31:06;;;;;;;5.10;4.60;;;;;;;17.34;40.71;98232.31;4895254;29;20213;-87
2022/03/24 00:33:33;;;;;;;5.60;4.50;;;;;;;17.22;40.77;98221.47;4877104;29;20241;-86
2022/03/24 00:36:00;;;;;;;4.60;4.20;;;;;;;14.71;40.82;97883.50;4879844;29;20707;-87
2022/03/24 00:38:29;;;;;;;4.97;4.43;;;;;;;14.92;40.67;97809.75;4880939;29;20212;-87
2022/03/24 00:40:57;;;;;;;5.00;4.50;;;;;;;15.46;40.61;97910.91;4880203;29;20210;-86
2022/03/24 00:43:25;;;;;;;5.23;4.53;;;;;;;17.89;40.51;98343.09;4866417;29;20700;-86
2022/03/24 00:45:52;;;;;;;6.23;4.47;;;;;;;15.36;40.58;97879.06;4876011;29;20210;-87
2022/03/24 00:48:20;;;;;;;5.30;4.70;;;;;;;15.91;40.58;97987.94;4896241;29;20220;-87
2022/03/24 00:50:47;;;;;;;5.57;4.60;;;;;;;17.77;40.58;98299.19;4876365;29;20349;-87
2022/03/24 00:53:14;;;;;;;5.43;4.77;;;;;;;17.78;40.49;98295.84;4879580;29;20202;-86
2022/03/24 00:55:41;;;;;;;4.50;4.10;;;;;;;17.27;40.38;98214.09;4894441;29;20296;-87
2022/03/24 00:58:08;;;;;;;5.30;4.57;;;;;;;16.31;40.59;98064.63;4879737;29;20210;-87
2022/03/24 01:00:38;;;;;;;5.60;4.50;;;;;;;13.32;40.66;97523.66;4898481;29;20789;-88
2022/03/24 01:03:08;;;;;;;5.27;4.63;;;;;;;14.86;40.65;97832.16;4887053;29;20332;-87
2022/03/24 01:05:37;;;;;;;6.70;4.90;;;;;;;17.26;40.62;98297.03;4879851;29;20209;-87
2022/03/24 01:08:10;;;;;;;5.23;4.60;;;;;;;14.53;40.36;97754.25;4880638;29;20217;-88
2022/03/24 01:10:42;;;;;;;5.60;5.00;;;;;;;10.96;40.17;97164.38;4910939;29;20262;-88
2022/03/24 01:13:09;;;;;;;4.83;4.40;;;;;;;17.62;40.52;98299.19;4897300;29;20225;-87
2022/03/24 01:15:36;;;;;;;5.10;4.60;;;;;;;17.64;40.73;98335.75;4885617;29;20385;-86
2022/03/24 01:18:03;;;;;;;4.73;4.33;;;;;;;16.31;40.49;98062.97;4888086;29;20265;-86
2022/03/24 01:20:30;;;;;;;5.63;4.83;;;;;;;17.36;40.68;98228.22;4895394;29;20201;-87
2022/03/24 01:22:58;;;;;;;4.97;4.50;;;;;;;17.50;40.66;98273.06;4894749;29;20231;-87
2022/03/24 01:25:26;;;;;;;6.33;4.77;;;;;;;14.87;40.83;97836.44;4880121;29;20245;-85
2022/03/24 01:27:56;;;;;;;5.70;4.90;;;;;;;15.01;40.80;97870.16;4900532;29;20189;-93
2022/03/24 01:35:43;;;;;;;5.67;4.80;;;;;;;13.90;41.19;97649.25;5339338;23;20245;-90
2022/03/24 01:38:12;;;;;;;6.93;4.93;;;;;;;11.11;40.26;97159.47;4931847;28;20165;-92
2022/03/24 01:48:38;;;;;;;4.63;4.20;;;;;;;14.85;40.24;97829.53;5038312;23;20220;-87
2022/03/24 01:51:05;;;;;;;5.73;4.57;;;;;;;17.30;40.66;98303.19;4924574;29;20239;-87
2022/03/24 01:53:37;;;;;;;5.23;4.60;;;;;;;14.93;40.39;97858.69;4898197;29;20292;-85
2022/03/24 01:56:04;;;;;;;4.63;4.10;;;;;;;15.06;40.68;97833.31;4889050;29;20211;-86
2022/03/24 01:58:30;;;;;;;4.83;4.33;;;;;;;14.53;40.89;97731.50;4943820;29;20213;-87
2022/03/24 02:01:25;;;;;;;5.93;4.70;;;;;;;17.17;40.79;98212.69;4899170;29;20204;-85
2022/03/24 02:03:54;;;;;;;5.63;4.77;;;;;;;13.38;40.26;97539.16;4892462;29;20311;-87
2022/03/24 02:06:24;;;;;;;5.20;4.73;;;;;;;16.62;40.94;98196.72;4916398;29;20282;-87
2022/03/24 02:08:55;;;;;;;5.17;4.67;;;;;;;16.38;40.49;98054.06;4913461;29;20208;-87
2022/03/24 02:11:22;;;;;;;5.03;4.53;;;;;;;14.86;40.70;97783.22;4883593;29;20276;-87
2022/03/24 02:13:48;;;;;;;5.27;4.77;;;;;;;18.24;40.69;98371.38;4898959;29;20251;-85
2022/03/24 02:16:15;;;;;;;4.97;4.47;;;;;;;15.92;40.28;97978.66;4900928;29;20204;-87
2022/03/24 02:18:45;;;;;;;5.27;4.77;;;;;;;17.53;40.61;98231.72;4926261;29;20212;-88
2022/03/24 02:21:15;;;;;;;5.07;4.50;;;;;;;16.56;40.49;98061.88;4905263;29;20259;-87
2022/03/24 02:23:44;;;;;;;4.90;4.50;;;;;;;16.95;40.56;98130.13;4935995;29;20231;-87
2022/03/24 02:26:12;;;;;;;5.30;4.57;;;;;;;17.59;40.33;98240.56;4905089;29;20204;-87
2022/03/24 02:28:38;;;;;;;5.13;4.63;;;;;;;15.87;40.23;97973.31;4902936;29;20220;-86
2022/03/24 02:31:09;;;;;;;5.20;4.47;;;;;;;17.30;40.67;98219.34;4925544;28;20187;-94
2022/03/24 02:33:40;;;;;;;5.03;4.53;;;;;;;13.63;40.71;97576.88;4951126;28;20196;-92
2022/03/24 02:36:07;;;;;;;5.87;4.93;;;;;;;15.33;40.54;97856.09;4948611;23;20218;-89
2022/03/24 02:41:14;;;;;;;4.97;4.47;;;;;;;13.57;40.47;97586.59;5178310;23;20228;-93
2022/03/24 02:46:18;;;;;;;6.37;4.73;;;;;;;14.93;41.06;97781.16;3169480;26;20219;-90
2022/03/24 02:48:45;;;;;;;5.33;4.77;;;;;;;12.71;40.76;97397.06;4934412;28;20212;-92
2022/03/24 02:51:12;;;;;;;5.93;5.00;;;;;;;13.28;40.46;97546.97;4993575;23;20278;-87
2022/03/24 02:53:39;;;;;;;5.73;4.90;;;;;;;14.98;40.70;97816.84;4940343;29;20587;-86
2022/03/24 02:56:06;;;;;;;6.33;5.23;;;;;;;17.06;40.21;98200.19;4898347;29;20658;-86
2022/03/24 02:58:33;;;;;;;6.13;4.90;;;;;;;15.75;40.14;97941.34;4919284;29;20208;-87
2022/03/24 03:00:59;;;;;;;5.17;4.70;;;;;;;16.34;40.52;98026.75;4903789;29;20244;-86
2022/03/24 03:03:26;;;;;;;5.27;4.77;;;;;;;17.85;40.72;98305.56;4903638;29;20227;-83
2022/03/24 03:05:54;;;;;;;5.20;4.70;;;;;;;14.47;40.33;97721.00;4912188;29;20208;-87
2022/03/24 03:08:21;;;;;;;5.07;4.57;;;;;;;15.60;40.25;97900.78;4902161;29;20295;-86
2022/03/24 03:10:48;;;;;;;5.53;5.03;;;;;;;18.15;40.34;98345.44;4931669;29;20208;-86
2022/03/24 03:13:14;;;;;;;5.30;4.80;;;;;;;17.65;40.45;98260.38;4934385;28;20208;-86
2022/03/24 03:15:41;;;;;;;5.10;4.60;;;;;;;16.63;40.35;98077.53;4917414;29;20467;-86
2022/03/24 03:18:08;;;;;;;5.43;4.93;;;;;;;12.50;40.34;97390.72;4935236;29;20244;-87
2022/03/24 03:20:38;;;;;;;5.93;4.97;;;;;;;13.27;40.43;97496.41;4918370;29;20624;-86
2022/03/24 03:23:05;;;;;;;5.50;4.83;;;;;;;16.36;40.27;98032.81;4935592;28;20220;-87
2022/03/24 03:25:32;;;;;;;8.07;5.07;;;;;;;14.92;40.34;97808.88;4935051;29;20208;-86
2022/03/24 03:57:47;;;;;;;5.20;4.70;;;;;;;11.79;40.20;97307.28;5511852;23;20610;-86
2022/03/24 04:03:03;;;;;;;5.30;4.80;;;;;;;16.55;40.73;98141.34;4926224;29;20698;-87
2022/03/24 04:05:35;;;;;;;5.90;5.27;;;;;;;12.29;40.14;97417.09;4900459;29;20693;-87
2022/03/24 04:08:03;;;;;;;5.60;5.00;;;;;;;13.30;40.39;97550.47;4899143;29;20722;-87
2022/03/24 04:10:32;;;;;;;4.70;4.20;;;;;;;14.75;40.40;97797.75;4899557;29;20242;-87
2022/03/24 04:12:59;;;;;;;5.30;4.80;;;;;;;18.64;40.33;98499.19;4899699;29;20193;-86
2022/03/24 04:15:32;;;;;;;5.10;4.60;;;;;;;13.71;40.25;97598.41;4900342;29;20194;-86
2022/03/24 04:18:02;;;;;;;5.33;4.67;;;;;;;14.29;40.21;97693.00;4898849;29;20217;-87
2022/03/24 04:20:29;;;;;;;5.70;5.07;;;;;;;14.73;40.33;97755.44;4887721;29;20205;-86
2022/03/24 04:22:59;;;;;;;5.07;4.57;;;;;;;14.95;40.39;97907.75;4899041;29;20245;-86
2022/03/24 04:25:26;;;;;;;5.00;4.40;;;;;;;12.15;40.48;97362.47;4913947;29;20197;-87
2022/03/24 04:27:53;;;;;;;5.57;4.90;;;;;;;14.51;39.96;97786.19;4893327;29;20209;-87
2022/03/24 04:30:21;;;;;;;5.90;5.30;;;;;;;15.39;40.31;97922.31;4905689;29;20608;-86
2022/03/24 04:32:49;;;;;;;5.43;4.83;;;;;;;17.35;40.40;98225.59;4915688;29;20372;-87
2022/03/24 04:35:16;;;;;;;5.67;5.10;;;;;;;17.62;40.27;98329.69;4915039;29;20638;-87
2022/03/24 04:37:43;;;;;;;4.97;4.47;;;;;;;13.21;40.12;97521.25;4882526;29;20269;-87
2022/03/24 04:40:11;;;;;;;6.20;5.60;;;;;;;13.35;40.56;97549.06;4905712;29;20376;-87
2022/03/24 04:42:45;;;;;;;5.57;4.97;;;;;;;16.17;40.59;98070.59;4895826;29;20324;-87
2022/03/24 04:45:17;;;;;;;5.43;4.93;;;;;;;17.35;40.39;98212.88;4898451;29;20236;-87
2022/03/24 04:47:44;;;;;;;5.50;5.00;;;;;;;17.52;40.14;98351.94;4887742;29;20648;-87
2022/03/24 04:50:12;;;;;;;5.40;4.90;;;;;;;13.73;40.53;97635.59;4908105;29;20202;-87
2022/03/24 04:52:39;;;;;;;5.63;5.03;;;;;;;14.12;40.32;97778.66;4898348;29;20687;-85
2022/03/24 04:55:07;;;;;;;5.43;4.87;;;;;;;13.30;40.37;97537.84;4898463;29;20226;-87
2022/03/24 04:57:34;;;;;;;4.87;4.40;;;;;;;17.01;40.46;98229.50;4916228;29;20219;-87
2022/03/24 05:00:01;;;;;;;5.03;4.57;;;;;;;12.83;40.55;97460.88;4889510;29;20574;-86
2022/03/24 05:02:28;;;;;;;5.20;4.70;;;;;;;13.01;39.95;97544.38;4914300;29;20212;-87
2022/03/24 05:04:55;;;;;;;5.27;4.77;;;;;;;12.80;40.05;97474.13;4897284;29;20229;-87
2022/03/24 05:07:23;;;;;;;5.57;4.63;;;;;;;14.91;40.56;97871.25;4908384;29;20209;-86
2022/03/24 05:09:50;;;;;;;5.50;5.00;;;;;;;13.31;40.40;97557.25;4917605;29;20217;-87
2022/03/24 05:12:17;;;;;;;5.47;4.97;;;;;;;17.17;40.41;98225.41;4892012;29;20201;-88
2022/03/24 05:14:44;;;;;;;5.40;4.90;;;;;;;17.15;40.21;98242.22;4901561;29;20221;-88
2022/03/24 05:17:12;;;;;;;5.50;5.00;;;;;;;14.90;40.72;97838.28;4901165;29;20784;-88
2022/03/24 05:19:44;;;;;;;5.53;5.03;;;;;;;13.23;40.32;97530.66;4892273;29;20264;-88
2022/03/24 05:22:18;;;;;;;6.27;4.93;;;;;;;14.56;40.98;97870.75;4886481;29;20583;-88
2022/03/24 05:24:50;;;;;;;5.70;4.93;;;;;;;15.98;40.62;98093.97;4924760;29;20283;-88
2022/03/24 05:27:16;;;;;;;7.10;5.40;;;;;;;16.56;40.60;98126.19;4900028;29;20213;-87
2022/03/24 05:29:43;;;;;;;5.33;4.83;;;;;;;16.18;40.77;98074.88;4897556;29;20664;-87
2022/03/24 05:32:11;;;;;;;5.27;4.77;;;;;;;14.72;40.66;97833.00;4915726;29;20694;-87
2022/03/24 05:34:38;;;;;;;5.57;5.07;;;;;;;14.42;40.77;97815.97;4898435;29;20228;-87
2022/03/24 05:37:05;;;;;;;5.57;5.00;;;;;;;14.88;40.90;97835.66;4921560;29;20655;-87
2022/03/24 05:39:32;;;;;;;5.27;4.77;;;;;;;13.10;40.87;97530.69;4899622;29;20208;-88
2022/03/24 05:41:58;;;;;;;5.03;4.53;;;;;;;13.23;40.50;97618.97;4912609;29;20201;-87
2022/03/24 05:44:25;;;;;;;5.97;5.07;;;;;;;14.73;40.63;97808.56;4900434;29;20256;-87
2022/03/24 05:46:52;;;;;;;5.37;4.87;;;;;;;17.67;40.55;98333.38;4895154;29;20643;-87
2022/03/24 05:49:19;;;;;;;5.30;4.80;;;;;;;13.17;40.33;97537.84;4906472;29;20201;-87
2022/03/24 05:51:46;;;;;;;5.40;4.90;;;;;;;14.65;40.66;97846.03;4904390;29;20275;-86
2022/03/24 05:54:17;;;;;;;5.83;5.23;;;;;;;12.42;40.35;97434.72;4921122;29;20240;-88
2022/03/24 05:56:53;;;;;;;5.83;5.23;;;;;;;14.44;40.68;97875.06;4904350;29;20212;-87
2022/03/24 05:59:21;;;;;;;7.83;5.27;;;;;;;14.35;40.28;97775.91;4915091;29;20210;-88
2022/03/24 06:01:48;;;;;;;5.57;4.97;;;;;;;13.95;40.61;97726.19;4903711;29;20196;-88
2022/03/24 06:04:23;;;;;;;5.47;4.97;;;;;;;14.45;40.27;97832.16;4921435;29;20319;-88
2022/03/24 06:06:53;;;;;;;5.60;5.10;;;;;;;14.61;40.90;97791.00;4920208;29;20563;-87
2022/03/24 06:09:21;;;;;;;6.07;4.50;;;;;;;14.96;40.38;97876.59;4905931;29;20221;-86
2022/03/24 06:11:47;;;;;;;5.60;5.00;;;;;;;14.65;40.56;97824.16;4917449;29;20257;-88
2022/03/24 06:14:14;;;;;;;5.90;5.33;;;;;;;17.32;40.26;98283.84;4911085;29;20225;-87
2022/03/24 06:16:41;;;;;;;12.10;6.97;;;;;;;17.56;38.95;98316.63;4918205;29;20629;-85
2022/03/24 06:19:09;;;;;;;11.13;7.50;;;;;;;17.43;38.35;98291.31;4903112;29;20224;-86
2022/03/24 06:21:37;;;;;;;11.10;8.63;;;;;;;18.06;37.71;98405.97;4886486;29;20760;-87
2022/03/24 06:24:05;;;;;;;11.60;9.90;;;;;;;17.95;36.89;98397.72;4886453;29;20229;-88
2022/03/24 06:26:32;;;;;;;12.43;9.90;;;;;;;18.04;36.50;98410.97;4914099;29;20351;-87
2022/03/24 06:28:58;;;;;;;13.40;11.53;;;;;;;18.23;35.71;98438.31;4921086;29;20236;-88
2022/03/24 06:31:25;;;;;;;13.70;10.77;;;;;;;17.99;35.92;98407.28;4903154;29;20315;-87
2022/03/24 06:33:53;;;;;;;14.77;11.80;;;;;;;17.96;35.44;98402.03;4902244;29;20660;-89
2022/03/24 06:36:19;;;;;;;16.93;12.23;;;;;;;18.13;35.14;98434.38;4887165;29;20258;-84
2022/03/24 06:38:46;;;;;;;20.57;13.00;;;;;;;18.11;35.13;98441.03;4902085;29;20239;-88
2022/03/24 06:41:14;;;;;;;17.90;12.73;;;;;;;18.16;34.76;98452.38;4904640;29;20295;-85
2022/03/24 06:43:42;;;;;;;14.53;12.63;;;;;;;18.05;35.63;98427.09;4895744;29;20284;-83
2022/03/24 06:46:09;;;;;;;16.13;12.87;;;;;;;18.58;35.57;98517.56;4886555;29;20205;-85
2022/03/24 06:48:37;;;;;;;17.23;11.90;;;;;;;17.96;36.33;98413.84;4913617;29;20583;-86
2022/03/24 06:51:04;;;;;;;20.97;11.57;;;;;;;18.15;35.94;98454.84;4917958;29;20206;-84
2022/03/24 06:53:31;;;;;;;14.83;12.23;;;;;;;17.97;36.60;98428.34;4909104;29;20308;-83
2022/03/24 06:55:59;;;;;;;13.97;11.83;;;;;;;17.79;36.37;98394.19;4923936;29;20237;-87
2022/03/24 06:58:25;;;;;;;16.20;11.13;;;;;;;18.12;36.58;98454.66;4890180;29;20270;-86
2022/03/24 07:00:52;;;;;;;15.63;11.20;;;;;;;18.29;36.69;98475.97;4890005;29;20763;-86
2022/03/24 07:03:19;;;;;;;12.23;10.83;;;;;;;18.03;36.79;98434.63;4923203;29;20217;-87
2022/03/24 07:05:46;;;;;;;14.00;12.30;;;;;;;18.17;36.19;98459.22;4899276;29;20671;-86
2022/03/24 07:08:13;;;;;;;16.27;12.17;;;;;;;16.85;35.94;98230.31;4907227;29;20197;-87
2022/03/24 07:10:46;;;;;;;17.40;12.07;;;;;;;17.77;36.40;98388.19;4931426;29;20208;-86
2022/03/24 07:13:12;;;;;;;16.77;11.83;;;;;;;17.93;36.07;98417.09;4910614;29;20208;-87
2022/03/24 07:15:39;;;;;;;18.37;12.37;;;;;;;18.27;36.27;98479.28;4899909;29;20283;-86
2022/03/24 07:18:05;;;;;;;16.87;11.60;;;;;;;18.23;36.11;98470.53;4881635;29;20292;-87
2022/03/24 07:20:34;;;;;;;14.07;11.57;;;;;;;17.89;36.37;98407.53;4881314;29;20232;-87
2022/03/24 07:23:03;;;;;;;15.27;11.90;;;;;;;17.57;36.39;98355.63;4897043;29;20692;-87
2022/03/24 07:25:31;;;;;;;16.07;11.27;;;;;;;18.42;36.16;98508.97;4900526;29;20225;-87
2022/03/24 07:27:57;;;;;;;13.43;10.50;;;;;;;18.11;36.45;98451.22;4921990;29;20218;-85
2022/03/24 07:30:24;;;;;;;12.00;10.80;;;;;;;18.24;36.55;98478.25;4908911;29;20268;-87
2022/03/24 07:32:50;;;;;;;12.60;10.10;;;;;;;17.95;36.15;98417.19;4884284;29;20201;-87
2022/03/24 07:35:18;;;;;;;11.60;10.27;;;;;;;18.18;36.92;98458.41;4910381;29;20256;-87
2022/03/24 07:37:46;;;;;;;14.47;10.17;;;;;;;18.37;36.95;98515.44;4883598;29;20296;-87
2022/03/24 07:40:14;;;;;;;12.97;10.00;;;;;;;18.11;37.00;98446.13;4899887;29;20237;-87
2022/03/24 07:42:42;;;;;;;10.60;9.50;;;;;;;18.43;37.38;98501.44;4895765;29;20316;-87
2022/03/24 07:45:08;;;;;;;13.07;9.93;;;;;;;18.54;37.06;98514.75;4895200;29;20343;-86
2022/03/24 07:47:36;;;;;;;14.03;10.47;;;;;;;18.01;37.44;98418.44;4892615;29;20237;-88
2022/03/24 07:50:03;;;;;;;12.17;9.17;;;;;;;18.65;37.08;98534.06;4888736;29;20238;-87
2022/03/24 07:52:30;;;;;;;11.27;9.47;;;;;;;18.30;37.47;98467.53;4909906;29;20243;-86
2022/03/24 07:54:59;;;;;;;12.97;9.77;;;;;;;18.07;37.10;98444.22;4920780;29;20249;-87
2022/03/24 07:57:28;;;;;;;11.30;9.03;;;;;;;18.33;37.57;98475.34;4898156;29;20300;-85
2022/03/24 07:59:54;;;;;;;11.57;9.50;;;;;;;17.90;37.52;98391.50;4894059;29;21045;-87
2022/03/24 08:02:21;;;;;;;9.37;8.43;;;;;;;18.59;37.39;98510.81;4890390;29;20266;-88
2022/03/24 08:04:48;;;;;;;10.80;8.90;;;;;;;18.39;37.58;98473.19;4904375;29;20237;-87
2022/03/24 08:07:14;;;;;;;10.17;8.63;;;;;;;18.40;37.57;98473.25;4925772;29;20300;-86
2022/03/24 08:09:41;;;;;;;10.27;8.73;;;;;;;18.38;37.70;98469.75;4896675;29;20227;-88
2022/03/24 08:12:09;;;;;;;10.00;8.17;;;;;;;17.51;37.86;98314.63;4898013;29;20271;-86
2022/03/24 08:14:36;;;;;;;11.23;8.93;;;;;;;18.45;37.88;98473.53;4894335;29;20601;-87
2022/03/24 08:17:02;;;;;;;9.63;8.63;;;;;;;17.41;37.80;98303.00;4893266;29;20696;-87
2022/03/24 08:19:29;;;;;;;10.97;7.90;;;;;;;18.27;37.82;98431.75;4899864;29;20228;-87
2022/03/24 08:21:56;;;;;;;9.93;8.30;;;;;;;18.06;37.59;98394.13;4919639;29;20243;-86
2022/03/24 08:24:22;;;;;;;11.23;7.93;;;;;;;17.21;37.70;98250.19;4918576;29;20296;-85
2022/03/24 08:26:49;;;;;;;11.03;7.90;;;;;;;18.14;37.63;98407.25;4884097;29;20202;-85
2022/03/24 08:29:15;;;;;;;9.47;7.70;;;;;;;17.97;37.46;98378.34;4882663;29;20239;-88
2022/03/24 08:31:42;;;;;;;9.70;7.67;;;;;;;18.27;37.74;98424.09;4889722;29;20213;-86
2022/03/24 08:34:09;;;;;;;9.03;8.13;;;;;;;17.76;38.06;98335.56;4915280;29;20229;-86
2022/03/24 08:36:35;;;;;;;8.03;7.07;;;;;;;17.95;37.80;98371.41;4920413;29;20627;-86
2022/03/24 08:39:02;;;;;;;10.77;6.90;;;;;;;18.49;37.86;98465.25;4918515;29;20228;-88
2022/03/24 08:41:29;;;;;;;9.00;7.20;;;;;;;18.37;37.88;98449.25;4898177;29;20284;-88
2022/03/24 08:43:55;;;;;;;9.27;7.53;;;;;;;18.35;37.58;98451.72;4895517;29;20277;-87
2022/03/24 08:46:24;;;;;;;9.60;7.90;;;;;;;17.36;37.56;98271.41;4896512;29;20288;-84
2022/03/24 08:48:53;;;;;;;8.07;7.10;;;;;;;18.48;37.78;98445.69;4911804;29;20205;-87
2022/03/24 08:51:20;;;;;;;8.83;7.77;;;;;;;18.16;37.64;98406.59;4899274;29;20209;-87
2022/03/24 08:53:47;;;;;;;9.37;7.17;;;;;;;18.49;37.67;98461.06;4911842;29;20393;-87
2022/03/24 08:56:14;;;;;;;9.20;7.27;;;;;;;18.40;37.82;98434.19;4892141;29;20212;-87
2022/03/24 08:58:41;;;;;;;8.90;6.87;;;;;;;18.35;38.09;98428.81;4889428;29;20252;-85
2022/03/24 09:01:10;;;;;;;10.20;8.10;;;;;;;18.41;37.84;98435.97;4913065;29;20186;-86
2022/03/24 09:03:37;;;;;;;8.70;7.70;;;;;;;18.55;37.43;98456.31;4912035;29;20299;-85
2022/03/24 09:06:04;;;;;;;10.10;7.90;;;;;;;17.60;37.32;98297.34;4936738;29;20221;-92
2022/03/24 09:08:33;;;;;;;9.53;8.53;;;;;;;18.98;37.79;98617.47;4924235;29;20226;-89
2022/03/24 09:11:00;;;;;;;12.33;8.50;;;;;;;18.77;37.69;98499.97;4932900;29;20214;-91
2022/03/24 09:13:28;;;;;;;10.53;8.27;;;;;;;14.51;37.65;97764.28;4941040;28;20264;-91
2022/03/24 09:15:56;;;;;;;10.03;8.47;;;;;;;15.20;37.61;97921.97;4940239;28;20184;-92
2022/03/24 09:18:24;;;;;;;9.20;8.30;;;;;;;15.85;37.70;98022.19;4927358;29;20197;-88
2022/03/24 09:20:51;;;;;;;8.80;7.90;;;;;;;14.78;37.84;97797.94;4939169;29;20185;-89
2022/03/24 09:23:18;;;;;;;11.37;7.90;;;;;;;15.01;38.25;97844.84;4938056;29;20207;-92
2022/03/24 09:25:45;;;;;;;8.27;7.13;;;;;;;19.00;37.65;98526.72;4918661;23;20235;-86
2022/03/24 09:28:12;;;;;;;9.27;8.30;;;;;;;19.00;37.96;98540.34;4912333;29;20759;-78
2022/03/24 09:30:40;;;;;;;9.43;7.63;;;;;;;19.02;38.03;98527.69;4911964;29;20237;-79
2022/03/24 09:33:08;;;;;;;8.40;7.53;;;;;;;18.23;38.03;98388.31;4908450;29;20201;-79
2022/03/24 09:35:35;;;;;;;10.63;7.63;;;;;;;18.43;38.04;98416.56;4889535;29;20535;-79
2022/03/24 09:38:02;;;;;;;8.33;7.40;;;;;;;18.79;37.79;98482.22;4866158;29;20206;-78
2022/03/24 09:40:29;;;;;;;8.27;7.43;;;;;;;18.80;38.11;98477.22;4885141;29;20220;-79
2022/03/24 09:42:56;;;;;;;8.57;7.37;;;;;;;18.60;37.95;98442.16;4874868;29;20239;-79
2022/03/24 09:45:23;;;;;;;8.87;7.77;;;;;;;19.10;37.95;98531.53;4865708;29;20273;-77
2022/03/24 09:47:49;;;;;;;8.27;7.10;;;;;;;13.99;38.05;97664.97;4883367;29;20261;-87
2022/03/24 09:50:17;;;;;;;11.93;7.27;;;;;;;19.11;38.24;98534.16;4863447;29;20313;-87
2022/03/24 09:52:44;;;;;;;7.63;6.83;;;;;;;18.83;38.15;98499.44;4860379;29;20234;-85
2022/03/24 09:55:16;;;;;;;9.10;7.20;;;;;;;19.14;37.68;98520.69;4891929;29;20309;-87
2022/03/24 09:57:43;;;;;;;9.80;7.07;;;;;;;18.83;38.05;98490.13;4906021;29;20221;-84
2022/03/24 10:00:30;;;;;;;7.30;6.60;;;;;;;17.58;38.15;98237.94;4887291;29;20212;-84
2022/03/24 10:03:14;;;;;;;7.30;6.50;;;;;;;18.41;38.21;98382.53;4867230;29;20209;-88
2022/03/24 10:05:55;;;;;;;7.40;6.60;;;;;;;19.16;38.00;98511.47;4882524;29;20233;-88
2022/03/24 10:08:21;;;;;;;7.10;6.33;;;;;;;18.38;38.37;98364.56;4887277;29;20584;-86
2022/03/24 10:10:48;;;;;;;6.93;6.23;;;;;;;18.45;38.24;98375.16;4877993;29;20315;-81
2022/03/24 10:13:50;;;;;;;6.90;6.20;;;;;;;19.19;37.96;98504.84;4887488;29;20723;-80
2022/03/24 10:16:33;;;;;;;7.47;6.67;;;;;;;19.20;38.10;98504.09;4884558;29;20588;-78
2022/03/24 10:19:07;;;;;;;6.77;6.07;;;;;;;18.02;37.91;98289.56;4887184;29;20548;-79
2022/03/24 10:21:35;;;;;;;7.87;6.33;;;;;;;19.22;38.34;98499.94;4889143;29;20636;-78
2022/03/24 10:24:09;;;;;;;7.87;5.63;;;;;;;19.23;38.13;98495.72;4880348;29;20549;-77
2022/03/24 10:26:46;;;;;;;6.43;5.77;;;;;;;19.23;38.26;98488.97;4887618;29;20317;-78
2022/03/24 10:29:19;;;;;;;6.27;5.63;;;;;;;19.24;38.22;98489.81;4883574;29;20362;-78
2022/03/24 10:31:53;;;;;;;6.40;5.80;;;;;;;19.25;38.21;98489.94;4880893;29;20298;-80
2022/03/24 10:34:40;;;;;;;6.57;5.90;;;;;;;19.26;38.25;98485.69;4905330;29;20920;-79
2022/03/24 10:37:08;;;;;;;7.80;6.00;;;;;;;17.90;38.12;98305.03;4893947;29;20230;-87
2022/03/24 10:39:35;;;;;;;6.93;5.87;;;;;;;17.11;38.08;98118.38;4887129;29;20257;-87
2022/03/24 10:42:18;;;;;;;7.30;5.80;;;;;;;18.52;38.26;98351.75;4879779;29;20297;-87
2022/03/24 10:45:04;;;;;;;6.33;5.63;;;;;;;19.28;38.11;98486.69;4894038;29;20240;-88
2022/03/24 10:47:55;;;;;;;5.90;5.17;;;;;;;17.95;38.54;98252.75;4886142;29;20245;-87
2022/03/24 10:50:38;;;;;;;6.50;5.23;;;;;;;19.26;38.58;98480.59;4887424;29;20640;-83
2022/03/24 10:53:07;;;;;;;6.80;5.70;;;;;;;17.81;38.79;98224.81;4894072;29;20213;-88
2022/03/24 10:56:04;;;;;;;5.43;4.93;;;;;;;19.24;38.65;98470.31;4887835;29;20285;-88
2022/03/24 10:58:32;;;;;;;5.63;4.93;;;;;;;19.21;38.85;98466.72;4905590;29;20236;-88
2022/03/24 11:01:03;;;;;;;5.27;4.77;;;;;;;18.93;38.64;98415.09;4887262;29;20229;-78
2022/03/24 11:03:31;;;;;;;5.77;5.17;;;;;;;19.23;38.66;98465.13;4882926;29;20559;-78
2022/03/24 11:06:14;;;;;;;8.13;5.50;;;;;;;18.06;38.83;98259.31;4877680;29;20319;-77
2022/03/24 11:08:42;;;;;;;5.40;4.90;;;;;;;19.21;38.89;98462.50;4905755;29;20205;-78
2022/03/24 11:11:19;;;;;;;5.50;5.00;;;;;;;19.21;38.98;98462.50;4879608;29;20261;-78
2022/03/24 11:13:53;;;;;;;5.53;4.97;;;;;;;19.20;38.72;98453.13;4898493;29;20241;-79
2022/03/24 11:16:32;;;;;;;5.17;4.67;;;;;;;19.21;38.87;98448.88;4885974;29;20293;-78
2022/03/24 11:18:59;;;;;;;6.00;5.30;;;;;;;16.74;38.89;98047.69;4863264;29;20217;-79
2022/03/24 11:21:28;;;;;;;6.07;5.47;;;;;;;19.20;38.97;98447.13;4896378;29;20830;-78
2022/03/24 11:23:55;;;;;;;5.80;4.67;;;;;;;17.83;39.23;98221.56;4911187;29;20273;-78
2022/03/24 11:26:22;;;;;;;8.17;5.30;;;;;;;19.20;39.17;98447.13;4892916;29;20224;-77
2022/03/24 11:28:50;;;;;;;6.73;4.63;;;;;;;18.15;39.64;98262.34;4892132;29;20281;-78
2022/03/24 11:31:16;;;;;;;31.00;5.80;;;;;;;18.28;39.55;98294.41;4888481;29;20293;-78
2022/03/24 11:33:46;;;;;;;11.90;5.50;;;;;;;18.94;39.26;98414.28;4884074;29;20286;-77
2022/03/24 11:36:14;;;;;;;15.83;5.73;;;;;;;18.91;39.39;98398.84;4891035;29;20209;-79
2022/03/24 11:38:41;;;;;;;8.87;4.77;;;;;;;17.88;39.58;98222.72;4881254;29;20238;-80
2022/03/24 11:41:19;;;;;;;9.83;4.60;;;;;;;18.94;39.70;98430.47;4896787;29;20269;-81
2022/03/24 11:43:49;;;;;;;5.50;4.30;;;;;;;19.18;39.79;98438.53;4896215;29;20217;-80
2022/03/24 11:46:32;;;;;;;6.77;4.33;;;;;;;19.15;40.15;98436.69;4878456;29;20233;-81
2022/03/24 11:49:22;;;;;;;5.77;4.77;;;;;;;19.15;39.77;98430.72;4882334;29;20688;-79
2022/03/24 11:52:09;;;;;;;8.23;4.60;;;;;;;19.13;40.19;98430.63;4892596;29;20206;-80
2022/03/24 11:54:39;;;;;;;4.90;4.00;;;;;;;19.13;40.17;98423.00;4878623;29;20727;-79
2022/03/24 11:57:22;;;;;;;4.77;4.20;;;;;;;19.10;39.93;98439.81;4880806;29;20246;-79
2022/03/24 11:59:49;;;;;;;6.57;4.80;;;;;;;19.09;40.15;98415.09;4893966;29;20242;-79
2022/03/24 12:02:17;;;;;;;4.43;3.83;;;;;;;19.08;40.01;98415.91;4887267;29;20209;-77
2022/03/24 12:04:50;;;;;;;4.93;4.27;;;;;;;18.73;40.30;98357.13;4899384;29;20217;-86
2022/03/24 12:07:18;;;;;;;4.93;4.27;;;;;;;17.42;40.27;98152.34;4871900;29;20490;-85
2022/03/24 12:09:55;;;;;;;5.13;4.10;;;;;;;19.03;40.38;98412.22;4881515;29;20233;-84
2022/03/24 12:12:22;;;;;;;5.47;4.07;;;;;;;18.13;40.31;98260.53;4902180;29;20300;-83
2022/03/24 12:14:53;;;;;;;6.80;3.97;;;;;;;18.99;40.29;98406.13;4908075;29;20222;-85
2022/03/24 12:17:31;;;;;;;4.97;4.10;;;;;;;18.98;40.36;98400.94;4912964;29;20246;-85
2022/03/24 12:19:59;;;;;;;4.43;4.03;;;;;;;18.97;40.53;98401.72;4882339;29;20209;-86
2022/03/24 12:22:25;;;;;;;5.23;4.50;;;;;;;18.96;40.69;98390.69;4912702;29;20205;-86
2022/03/24 12:24:53;;;;;;;7.47;4.13;;;;;;;18.95;40.79;98391.44;4912981;29;20295;-85
2022/03/24 12:27:20;;;;;;;4.93;3.83;;;;;;;18.66;40.66;98343.22;4883839;29;20214;-85
2022/03/24 12:30:13;;;;;;;6.60;3.67;;;;;;;18.36;40.73;98290.63;4904991;29;20245;-86
2022/03/24 12:32:40;;;;;;;7.67;4.10;;;;;;;18.93;40.62;98387.06;4879784;29;20213;-84
2022/03/24 12:35:07;;;;;;;9.93;4.40;;;;;;;18.93;40.44;98393.06;4916209;29;20309;-86